»·PEaware :: N101JP KPSP-KONT

N101JP :: KPSP-KONT

FLIGHT INFORMATION

Flight Status: Arrived
Operator: Privately registered:
United States
More flights under this callsign
Pilot: James T. (870)
Aircraft: PILATUS PC-12 EAGLE
(PC12)
More flights by this aircraft type
Origin: KPSP Palm Springs Intl
United States
Destination: KONT Ontario Intl
United States
More flights between these airports :: More routes between these airports
Route: +CATH1 V388 PDZ
File this flight plan on PilotEdge
Remarks:
Altitude:
(Current/Filed)
120ft
Speed:
(Current/Filed)
200kts
Departed: 16-May-15 12:50 PM
Arrived: 16-May-15 01:18 PM
Distance/Time
Traveled:
56nm/0:27
Distance/Time
To Go:
Arrived

Flight Plot

Page will automatically refresh every two minutes.

Flight plan parsing failed; only flown route is shown


Map Options




Map Legend


Flown Route
Filed Route
Departure Airport
Arrival Airport
Navaid (VOR, NDB)
Fix

Horizontal Profiles

Position Reports

Time Latitude Longitude Heading Altitude Ground
Speed
16-May-15 12:35 33.823010 -116.498029 56 482ft 0kts
16-May-15 12:36 33.823010 -116.498029 56 482ft 0kts
16-May-15 12:37 33.823010 -116.498029 56 482ft 0kts
16-May-15 12:38 33.823010 -116.498029 56 482ft 0kts
16-May-15 12:39 33.823010 -116.498029 56 482ft 0kts
16-May-15 12:40 33.823010 -116.498029 56 482ft 0kts
16-May-15 12:41 33.823010 -116.498029 56 482ft 0kts
16-May-15 12:42 33.822994 -116.497776 119 483ft 2kts
16-May-15 12:43 33.821228 -116.495980 143 482ft 7kts
16-May-15 12:44 33.819753 -116.496179 235 482ft 1kts
16-May-15 12:45 33.819232 -116.497028 232 483ft 0kts
16-May-15 12:46 33.819232 -116.497028 232 483ft 0kts
16-May-15 12:47 33.820868 -116.499809 323 483ft 63kts
16-May-15 12:48 33.851447 -116.526809 324 1593ft 167kts
16-May-15 12:49 33.889517 -116.560553 324 3412ft 172kts
16-May-15 12:50 33.915490 -116.541429 115 5092ft 161kts
16-May-15 12:51 33.896241 -116.493303 118 6773ft 160kts
16-May-15 12:52 33.875629 -116.446425 116 8338ft 158kts
16-May-15 12:53 33.857390 -116.399192 116 9770ft 156kts
16-May-15 12:54 33.837001 -116.353314 117 11109ft 155kts
16-May-15 12:55 33.863746 -116.338465 301 12005ft 186kts
16-May-15 12:56 33.878129 -116.405147 281 12008ft 223kts
16-May-15 12:57 33.892471 -116.480012 283 12002ft 236kts
16-May-15 12:58 33.908714 -116.555020 283 11948ft 235kts
16-May-15 12:59 33.924912 -116.629944 283 11938ft 232kts
16-May-15 13:00 33.940670 -116.703220 284 11953ft 229kts
16-May-15 13:01 33.947117 -116.777754 268 11996ft 229kts
16-May-15 13:02 33.944447 -116.857208 268 11624ft 237kts
16-May-15 13:03 33.942210 -116.935680 279 10120ft 238kts
16-May-15 13:04 33.966305 -117.005705 293 8706ft 234kts
16-May-15 13:05 33.990723 -117.075833 293 7137ft 232kts
16-May-15 13:06 34.010499 -117.146021 285 6009ft 214kts
16-May-15 13:07 34.024343 -117.207368 286 6001ft 181kts
16-May-15 13:08 34.038355 -117.269530 286 5531ft 220kts
16-May-15 13:09 34.051517 -117.328381 286 4792ft 203kts
16-May-15 13:10 34.054873 -117.394465 271 3581ft 199kts
16-May-15 13:11 34.054910 -117.466107 271 3041ft 140kts
16-May-15 13:12 34.054954 -117.502777 271 2268ft 124kts
16-May-15 13:13 34.054969 -117.539333 271 1638ft 98kts
16-May-15 13:14 34.054977 -117.570637 271 1156ft 93kts
16-May-15 13:15 34.054551 -117.589529 194 949ft 9kts
16-May-15 13:16 34.053837 -117.592933 270 949ft 15kts
16-May-15 13:17 34.053841 -117.598047 269 949ft 17kts
16-May-15 13:18 34.053176 -117.603424 252 950ft 11kts
16-May-15 13:19 34.052959 -117.603297 92 950ft 0kts
16-May-15 13:20 34.052959 -117.603297 92 950ft 0kts
16-May-15 13:21 34.052959 -117.603297 92 950ft 0kts
16-May-15 13:22 34.052959 -117.603297 92 950ft 0kts
16-May-15 13:23 34.052959 -117.603297 92 950ft 0kts
16-May-15 13:24 34.052959 -117.603297 92 950ft 0kts
16-May-15 13:25 34.052959 -117.603297 92 950ft 0kts
16-May-15 13:26 34.052959 -117.603297 92 950ft 0kts
16-May-15 13:27 34.052959 -117.603297 92 950ft 0kts
16-May-15 13:28 34.052959 -117.603297 92 950ft 0kts
16-May-15 13:29 34.052959 -117.603297 92 950ft 0kts

Navigation Log

Ident Type
Flight plan parsing failed, navigation log unavailable